Liguria — IRKJ — position and weather

sailwx.info

Track history (hours):
 
Tides and Currents Weather Stations Pressure Air Temp Water Temp Dewpoint Dewpoint Depression Visibility Wind Speed Wind Dir Waves Ship Positions

Liguria

Last reported at 2015-Aug-02 11:09 UTC. Time now 2015-Aug-02 14:18 UTC.
Position N 44°18' E 008°29'.

Length 30 m.

Type: Tug. MMSI: 247228500.

Date/timePositionNaut miles runAvg speedWind from/ knotsBaromVisibWave heightAir tempDewpointWater temp
2015-Aug-02 11:09N 44°18' E 008°29'0 0.0
2015-Aug-02 10:21N 44°18' E 008°29'0 0.0
2015-Aug-02 08:30N 44°18' E 008°29'0 0.0
2015-Aug-02 07:30N 44°18' E 008°29'0 0.0
2015-Aug-02 06:30N 44°18' E 008°29'0 0.0
2015-Aug-02 05:30N 44°18' E 008°29'0 0.0
2015-Aug-02 04:33N 44°18' E 008°29'0 0.0
2015-Aug-01 17:25N 44°18' E 008°29'0 0.0
2015-Aug-01 16:26N 44°18' E 008°29'0 0.0
2015-Aug-01 14:14N 44°18' E 008°29'0 0.0
2015-Aug-01 11:17N 44°18' E 008°29'0 0.0
2015-Aug-01 10:23N 44°18' E 008°29'0 0.0
2015-Aug-01 08:13N 44°18' E 008°29'1 0.9
2015-Aug-01 07:33N 44°18' E 008°30'2 2.1
2015-Aug-01 06:26N 44°16' E 008°28'2 2.4
2015-Aug-01 05:33N 44°18' E 008°29'1 0.6
2015-Aug-01 04:32N 44°18' E 008°29'0 0.0
2015-Aug-01 03:20N 44°18' E 008°29'0 0.0
2015-Aug-01 02:20N 44°18' E 008°29'0 0.0
2015-Aug-01 01:23N 44°18' E 008°29'0 0.0
2015-Aug-01 00:26N 44°18' E 008°29'0 0.0
2015-Jul-31 23:23N 44°18' E 008°29'0 0.0
2015-Jul-31 22:29N 44°18' E 008°29'0 0.0
2015-Jul-31 12:30N 44°18' E 008°29'0 0.0
2015-Jul-31 11:30N 44°18' E 008°29'0 0.0
2015-Jul-31 10:30N 44°18' E 008°29'0 0.0
2015-Jul-31 09:33N 44°18' E 008°29'0 0.0
2015-Jul-31 08:18N 44°18' E 008°29'0 0.0
2015-Jul-31 07:33N 44°18' E 008°29'0 0.0
2015-Jul-31 06:33N 44°18' E 008°29'0 0.0
2015-Jul-31 05:33N 44°18' E 008°29'0 0.0
2015-Jul-30 20:30N 44°18' E 008°29'0 0.0
2015-Jul-30 19:30N 44°18' E 008°29'0 0.0
2015-Jul-30 16:32N 44°18' E 008°29'0 0.0
2015-Jul-30 15:32N 44°18' E 008°29'2 2.2
2015-Jul-30 14:33N 44°17' E 008°28'0 0.0
2015-Jul-30 13:33N 44°17' E 008°28'1 1.2
2015-Jul-30 12:33N 44°16' E 008°28'3 2.7
2015-Jul-30 11:33N 44°18' E 008°29'0 0.0
2015-Jul-30 07:31N 44°18' E 008°29'0 0.0
2015-Jul-30 06:31N 44°18' E 008°29'0 0.0
2015-Jul-30 05:31N 44°18' E 008°29'0 0.0
2015-Jul-30 04:31N 44°18' E 008°29'0 0.0
2015-Jul-30 03:34N 44°18' E 008°29'0 0.0
2015-Jul-30 02:31N 44°18' E 008°29'0 0.0
2015-Jul-30 01:31N 44°18' E 008°29'0 0.0
2015-Jul-30 00:31N 44°18' E 008°29'0 0.0
2015-Jul-29 23:31N 44°18' E 008°29'0 0.0
2015-Jul-29 22:31N 44°18' E 008°29'0 0.0
2015-Jul-29 21:25N 44°18' E 008°29'0 0.0
2015-Jul-29 20:31N 44°18' E 008°29'0 0.0
2015-Jul-29 19:31N 44°18' E 008°29'0 0.0
2015-Jul-29 18:31N 44°18' E 008°29'0 0.0
2015-Jul-29 17:33N 44°18' E 008°29'1 0.6
2015-Jul-29 16:33N 44°19' E 008°30'1 0.6
2015-Jul-29 15:31N 44°18' E 008°29'0 0.0
2015-Jul-29 14:31N 44°18' E 008°29'0 0.0
2015-Jul-29 13:31N 44°18' E 008°29'0 0.0
2015-Jul-29 12:31N 44°18' E 008°29'0 0.0
2015-Jul-29 11:31N 44°18' E 008°29'0 0.0
2015-Jul-29 09:33N 44°18' E 008°29'0 0.0
2015-Jul-29 04:30N 44°18' E 008°29'0 0.0
2015-Jul-29 03:30N 44°18' E 008°29'0 0.0
2015-Jul-29 02:30N 44°18' E 008°29'0 0.0
2015-Jul-29 01:30N 44°18' E 008°29'0 0.0
2015-Jul-29 00:30N 44°18' E 008°29'0 0.0
2015-Jul-28 23:33N 44°18' E 008°29'0 0.0
2015-Jul-28 22:33N 44°18' E 008°29'0 0.0
2015-Jul-28 21:30N 44°18' E 008°29'0 0.4
2015-Jul-28 20:33N 44°19' E 008°30'0 0.3
2015-Jul-28 19:33N 44°18' E 008°29'0 0.0
2015-Jul-28 18:33N 44°18' E 008°29'0 0.0
2015-Jul-28 17:33N 44°18' E 008°29'0 0.0
2015-Jul-28 16:33N 44°18' E 008°29'0 0.0
2015-Jul-28 15:33N 44°18' E 008°29'0 0.0
2015-Jul-28 14:33N 44°18' E 008°29'0 0.0
2015-Jul-28 13:33N 44°18' E 008°29'0 0.0
2015-Jul-28 12:33N 44°18' E 008°29'1 0.7
2015-Jul-28 11:33N 44°19' E 008°30'1 0.6
2015-Jul-28 10:29N 44°18' E 008°29'0 0.0
2015-Jul-28 09:29N 44°18' E 008°29'0 0.0
2015-Jul-28 08:32N 44°18' E 008°29'0 0.0
2015-Jul-28 07:29N 44°18' E 008°29'0 0.4
2015-Jul-28 06:34N 44°19' E 008°30'0 0.3
2015-Jul-28 05:33N 44°19' E 008°30'0 0.1
2015-Jul-28 04:30N 44°19' E 008°30'1 0.1
2015-Jul-27 21:31N 44°18' E 008°29'0 0.0
2015-Jul-27 20:31N 44°18' E 008°29'0 0.0
2015-Jul-27 19:31N 44°18' E 008°29'0 0.0
2015-Jul-27 18:31N 44°18' E 008°29'0 0.0
2015-Jul-27 17:31N 44°18' E 008°29'0 0.0
2015-Jul-27 16:31N 44°18' E 008°29'0 0.0
2015-Jul-27 15:22N 44°18' E 008°29'0 0.0
2015-Jul-27 14:31N 44°18' E 008°29'1 0.3
2015-Jul-27 12:32N 44°19' E 008°30'1 0.6
2015-Jul-27 11:29N 44°18' E 008°29'0 0.0
2015-Jul-27 09:31N 44°18' E 008°29'0 0.0
2015-Jul-27 08:31N 44°18' E 008°29'0 0.0
2015-Jul-27 07:28N 44°18' E 008°29'0 0.0
2015-Jul-27 06:28N 44°18' E 008°29'0 0.0
2015-Jul-27 04:28N 44°18' E 008°29'0 0.0
2015-Jul-26 17:28N 44°18' E 008°29'0 0.0
2015-Jul-26 16:31N 44°18' E 008°29'1 0.7
2015-Jul-26 15:33N 44°19' E 008°30'3 2.6
2015-Jul-26 14:30N 44°17' E 008°27'0 0.4
2015-Jul-26 13:31N 44°16' E 008°27'1 0.8
2015-Jul-26 12:33N 44°17' E 008°28'2 1.8
2015-Jul-26 11:33N 44°18' E 008°29'0 0.0
2015-Jul-26 10:03N 44°18' E 008°29'0 0.0
2015-Jul-26 09:21N 44°18' E 008°29'0 0.0
2015-Jul-26 08:12N 44°18' E 008°29'0 0.0
2015-Jul-26 07:27N 44°18' E 008°29'0 0.0
2015-Jul-26 06:27N 44°18' E 008°29'0 0.0
2015-Jul-26 05:30N 44°18' E 008°29'0 0.0
2015-Jul-26 04:27N 44°18' E 008°29'0 0.0
2015-Jul-26 03:30N 44°18' E 008°29'0 0.0
2015-Jul-25 12:29N 44°18' E 008°29'0 0.0
2015-Jul-25 11:32N 44°18' E 008°29'0 0.0
2015-Jul-25 10:29N 44°18' E 008°29'0 0.0
2015-Jul-25 09:29N 44°18' E 008°29'0 0.0
2015-Jul-25 08:17N 44°18' E 008°29'0 0.0
2015-Jul-25 07:32N 44°18' E 008°29'0 0.0
2015-Jul-25 06:32N 44°18' E 008°29'0 0.0
2015-Jul-25 05:20N 44°18' E 008°29'0 0.0
2015-Jul-25 04:32N 44°18' E 008°29'0 0.0
2015-Jul-24 12:31N 44°18' E 008°29'0 0.0
2015-Jul-24 11:25N 44°18' E 008°29'0 0.0
2015-Jul-24 10:25N 44°18' E 008°29'0 0.0
2015-Jul-24 09:25N 44°18' E 008°29'0 0.0
2015-Jul-24 08:10N 44°18' E 008°29'0 0.0
2015-Jul-24 07:25N 44°18' E 008°29'0 0.0
2015-Jul-24 04:16N 44°18' E 008°29'0 0.0
2015-Jul-23 16:26N 44°18' E 008°29'0 0.0
2015-Jul-23 15:32N 44°18' E 008°29'0 0.0
2015-Jul-23 14:29N 44°18' E 008°29'0 0.0
2015-Jul-23 13:23N 44°18' E 008°29'0 0.0
2015-Jul-23 12:17N 44°18' E 008°29'0 0.0
2015-Jul-23 11:23N 44°18' E 008°29'  
Track history (hours):
 
Tides and Currents Weather Stations Pressure Air Temp Water Temp Dewpoint Dewpoint Depression Visibility Wind Speed Wind Dir Waves Ship Positions

Liguria

Last reported at 2015-Aug-02 11:09 UTC. Time now 2015-Aug-02 14:18 UTC.
Position N 44°18' E 008°29'.

Length 30 m.

Type: Tug. MMSI: 247228500.

Date/timePositionNaut miles runAvg speedWind from/ knotsBaromVisibWave heightAir tempDewpointWater temp
2015-Aug-02 11:09N 44°18' E 008°29'0 0.0
2015-Aug-02 10:21N 44°18' E 008°29'0 0.0
2015-Aug-02 08:30N 44°18' E 008°29'0 0.0
2015-Aug-02 07:30N 44°18' E 008°29'0 0.0
2015-Aug-02 06:30N 44°18' E 008°29'0 0.0
2015-Aug-02 05:30N 44°18' E 008°29'0 0.0
2015-Aug-02 04:33N 44°18' E 008°29'0 0.0
2015-Aug-01 17:25N 44°18' E 008°29'0 0.0
2015-Aug-01 16:26N 44°18' E 008°29'0 0.0
2015-Aug-01 14:14N 44°18' E 008°29'0 0.0
2015-Aug-01 11:17N 44°18' E 008°29'0 0.0
2015-Aug-01 10:23N 44°18' E 008°29'0 0.0
2015-Aug-01 08:13N 44°18' E 008°29'1 0.9
2015-Aug-01 07:33N 44°18' E 008°30'2 2.1
2015-Aug-01 06:26N 44°16' E 008°28'2 2.4
2015-Aug-01 05:33N 44°18' E 008°29'1 0.6
2015-Aug-01 04:32N 44°18' E 008°29'0 0.0
2015-Aug-01 03:20N 44°18' E 008°29'0 0.0
2015-Aug-01 02:20N 44°18' E 008°29'0 0.0
2015-Aug-01 01:23N 44°18' E 008°29'0 0.0
2015-Aug-01 00:26N 44°18' E 008°29'0 0.0
2015-Jul-31 23:23N 44°18' E 008°29'0 0.0
2015-Jul-31 22:29N 44°18' E 008°29'0 0.0
2015-Jul-31 12:30N 44°18' E 008°29'0 0.0
2015-Jul-31 11:30N 44°18' E 008°29'0 0.0
2015-Jul-31 10:30N 44°18' E 008°29'0 0.0
2015-Jul-31 09:33N 44°18' E 008°29'0 0.0
2015-Jul-31 08:18N 44°18' E 008°29'0 0.0
2015-Jul-31 07:33N 44°18' E 008°29'0 0.0
2015-Jul-31 06:33N 44°18' E 008°29'0 0.0
2015-Jul-31 05:33N 44°18' E 008°29'0 0.0
2015-Jul-30 20:30N 44°18' E 008°29'0 0.0
2015-Jul-30 19:30N 44°18' E 008°29'0 0.0
2015-Jul-30 16:32N 44°18' E 008°29'0 0.0
2015-Jul-30 15:32N 44°18' E 008°29'2 2.2
2015-Jul-30 14:33N 44°17' E 008°28'0 0.0
2015-Jul-30 13:33N 44°17' E 008°28'1 1.2
2015-Jul-30 12:33N 44°16' E 008°28'3 2.7
2015-Jul-30 11:33N 44°18' E 008°29'0 0.0
2015-Jul-30 07:31N 44°18' E 008°29'0 0.0
2015-Jul-30 06:31N 44°18' E 008°29'0 0.0
2015-Jul-30 05:31N 44°18' E 008°29'0 0.0
2015-Jul-30 04:31N 44°18' E 008°29'0 0.0
2015-Jul-30 03:34N 44°18' E 008°29'0 0.0
2015-Jul-30 02:31N 44°18' E 008°29'0 0.0
2015-Jul-30 01:31N 44°18' E 008°29'0 0.0
2015-Jul-30 00:31N 44°18' E 008°29'0 0.0
2015-Jul-29 23:31N 44°18' E 008°29'0 0.0
2015-Jul-29 22:31N 44°18' E 008°29'0 0.0
2015-Jul-29 21:25N 44°18' E 008°29'0 0.0
2015-Jul-29 20:31N 44°18' E 008°29'0 0.0
2015-Jul-29 19:31N 44°18' E 008°29'0 0.0
2015-Jul-29 18:31N 44°18' E 008°29'0 0.0
2015-Jul-29 17:33N 44°18' E 008°29'1 0.6
2015-Jul-29 16:33N 44°19' E 008°30'1 0.6
2015-Jul-29 15:31N 44°18' E 008°29'0 0.0
2015-Jul-29 14:31N 44°18' E 008°29'0 0.0
2015-Jul-29 13:31N 44°18' E 008°29'0 0.0
2015-Jul-29 12:31N 44°18' E 008°29'0 0.0
2015-Jul-29 11:31N 44°18' E 008°29'0 0.0
2015-Jul-29 09:33N 44°18' E 008°29'0 0.0
2015-Jul-29 04:30N 44°18' E 008°29'0 0.0
2015-Jul-29 03:30N 44°18' E 008°29'0 0.0
2015-Jul-29 02:30N 44°18' E 008°29'0 0.0
2015-Jul-29 01:30N 44°18' E 008°29'0 0.0
2015-Jul-29 00:30N 44°18' E 008°29'0 0.0
2015-Jul-28 23:33N 44°18' E 008°29'0 0.0
2015-Jul-28 22:33N 44°18' E 008°29'0 0.0
2015-Jul-28 21:30N 44°18' E 008°29'0 0.4
2015-Jul-28 20:33N 44°19' E 008°30'0 0.3
2015-Jul-28 19:33N 44°18' E 008°29'0 0.0
2015-Jul-28 18:33N 44°18' E 008°29'0 0.0
2015-Jul-28 17:33N 44°18' E 008°29'0 0.0
2015-Jul-28 16:33N 44°18' E 008°29'0 0.0
2015-Jul-28 15:33N 44°18' E 008°29'0 0.0
2015-Jul-28 14:33N 44°18' E 008°29'0 0.0
2015-Jul-28 13:33N 44°18' E 008°29'0 0.0
2015-Jul-28 12:33N 44°18' E 008°29'1 0.7
2015-Jul-28 11:33N 44°19' E 008°30'1 0.6
2015-Jul-28 10:29N 44°18' E 008°29'0 0.0
2015-Jul-28 09:29N 44°18' E 008°29'0 0.0
2015-Jul-28 08:32N 44°18' E 008°29'0 0.0
2015-Jul-28 07:29N 44°18' E 008°29'0 0.4
2015-Jul-28 06:34N 44°19' E 008°30'0 0.3
2015-Jul-28 05:33N 44°19' E 008°30'0 0.1
2015-Jul-28 04:30N 44°19' E 008°30'1 0.1
2015-Jul-27 21:31N 44°18' E 008°29'0 0.0
2015-Jul-27 20:31N 44°18' E 008°29'0 0.0
2015-Jul-27 19:31N 44°18' E 008°29'0 0.0
2015-Jul-27 18:31N 44°18' E 008°29'0 0.0
2015-Jul-27 17:31N 44°18' E 008°29'0 0.0
2015-Jul-27 16:31N 44°18' E 008°29'0 0.0
2015-Jul-27 15:22N 44°18' E 008°29'0 0.0
2015-Jul-27 14:31N 44°18' E 008°29'1 0.3
2015-Jul-27 12:32N 44°19' E 008°30'1 0.6
2015-Jul-27 11:29N 44°18' E 008°29'0 0.0
2015-Jul-27 09:31N 44°18' E 008°29'0 0.0
2015-Jul-27 08:31N 44°18' E 008°29'0 0.0
2015-Jul-27 07:28N 44°18' E 008°29'0 0.0
2015-Jul-27 06:28N 44°18' E 008°29'0 0.0
2015-Jul-27 04:28N 44°18' E 008°29'0 0.0
2015-Jul-26 17:28N 44°18' E 008°29'0 0.0
2015-Jul-26 16:31N 44°18' E 008°29'1 0.7
2015-Jul-26 15:33N 44°19' E 008°30'3 2.6
2015-Jul-26 14:30N 44°17' E 008°27'0 0.4
2015-Jul-26 13:31N 44°16' E 008°27'1 0.8
2015-Jul-26 12:33N 44°17' E 008°28'2 1.8
2015-Jul-26 11:33N 44°18' E 008°29'0 0.0
2015-Jul-26 10:03N 44°18' E 008°29'0 0.0
2015-Jul-26 09:21N 44°18' E 008°29'0 0.0
2015-Jul-26 08:12N 44°18' E 008°29'0 0.0
2015-Jul-26 07:27N 44°18' E 008°29'0 0.0
2015-Jul-26 06:27N 44°18' E 008°29'0 0.0
2015-Jul-26 05:30N 44°18' E 008°29'0 0.0
2015-Jul-26 04:27N 44°18' E 008°29'0 0.0
2015-Jul-26 03:30N 44°18' E 008°29'0 0.0
2015-Jul-25 12:29N 44°18' E 008°29'0 0.0
2015-Jul-25 11:32N 44°18' E 008°29'0 0.0
2015-Jul-25 10:29N 44°18' E 008°29'0 0.0
2015-Jul-25 09:29N 44°18' E 008°29'0 0.0
2015-Jul-25 08:17N 44°18' E 008°29'0 0.0
2015-Jul-25 07:32N 44°18' E 008°29'0 0.0
2015-Jul-25 06:32N 44°18' E 008°29'0 0.0
2015-Jul-25 05:20N 44°18' E 008°29'0 0.0
2015-Jul-25 04:32N 44°18' E 008°29'0 0.0
2015-Jul-24 12:31N 44°18' E 008°29'0 0.0
2015-Jul-24 11:25N 44°18' E 008°29'0 0.0
2015-Jul-24 10:25N 44°18' E 008°29'0 0.0
2015-Jul-24 09:25N 44°18' E 008°29'0 0.0
2015-Jul-24 08:10N 44°18' E 008°29'0 0.0
2015-Jul-24 07:25N 44°18' E 008°29'0 0.0
2015-Jul-24 04:16N 44°18' E 008°29'0 0.0
2015-Jul-23 16:26N 44°18' E 008°29'0 0.0
2015-Jul-23 15:32N 44°18' E 008°29'0 0.0
2015-Jul-23 14:29N 44°18' E 008°29'0 0.0
2015-Jul-23 13:23N 44°18' E 008°29'0 0.0
2015-Jul-23 12:17N 44°18' E 008°29'0 0.0
2015-Jul-23 11:23N 44°18' E 008°29'  

Dump ship's entire track history